createdAt,value
2023-05-02T00:00:39.465Z,8.87
2023-05-02T00:02:41.682Z,9.33
2023-05-02T00:04:43.893Z,8.93
2023-05-02T00:06:49.065Z,8.53
2023-05-02T00:08:51.208Z,9.40
2023-05-02T00:10:53.177Z,8.63
2023-05-02T00:12:55.531Z,8.83
2023-05-02T00:14:57.477Z,8.60
2023-05-02T00:16:59.492Z,8.80
2023-05-02T00:19:01.613Z,9.00
2023-05-02T00:21:03.631Z,9.50
2023-05-02T00:23:05.606Z,8.57
2023-05-02T00:25:08.106Z,9.00
2023-05-02T00:27:10.091Z,9.70
2023-05-02T00:29:12.259Z,9.83
2023-05-02T00:31:14.494Z,9.50
2023-05-02T00:33:16.700Z,9.30
2023-05-02T00:35:18.792Z,9.50
2023-05-02T00:37:21.161Z,8.97
2023-05-02T00:39:23.456Z,9.30
2023-05-02T00:41:26.087Z,9.17
2023-05-02T00:43:30.751Z,9.30
2023-05-02T00:45:32.954Z,9.00
2023-05-02T00:47:35.492Z,9.70
2023-05-02T00:49:37.718Z,9.97
2023-05-02T00:51:40.449Z,10.20
2023-05-02T00:53:42.703Z,8.00
2023-05-02T00:55:45.197Z,8.70
2023-05-02T00:57:48.370Z,9.77
2023-05-02T00:59:51.212Z,8.77
2023-05-02T01:02:08.469Z,8.80
2023-05-02T01:04:19.918Z,8.83
2023-05-02T01:06:34.148Z,8.97
2023-05-02T01:08:42.631Z,9.33
2023-05-02T01:10:53.056Z,10.00
2023-05-02T01:12:55.302Z,9.90
2023-05-02T01:14:59.182Z,9.67
2023-05-02T01:17:05.360Z,9.80
2023-05-02T01:19:11.658Z,9.33
2023-05-02T01:21:13.861Z,8.67
2023-05-02T01:23:22.689Z,9.47
2023-05-02T01:26:02.456Z,9.20
2023-05-02T01:28:24.155Z,8.90
2023-05-02T01:30:28.777Z,8.93
2023-05-02T01:32:33.480Z,9.00
2023-05-02T01:34:37.422Z,8.63
2023-05-02T01:36:44.134Z,8.27
2023-05-02T01:38:46.836Z,8.57
2023-05-02T01:40:50.555Z,7.63
2023-05-02T01:42:53.842Z,7.53
2023-05-02T01:44:58.141Z,8.10
2023-05-02T01:47:00.772Z,8.60
2023-05-02T01:49:04.260Z,8.83
2023-05-02T01:51:06.553Z,8.00
2023-05-02T01:53:11.414Z,7.40
2023-05-02T01:55:16.241Z,7.50
2023-05-02T01:57:18.875Z,7.83
2023-05-02T01:59:23.050Z,7.23
2023-05-02T02:01:27.576Z,7.37
2023-05-02T02:03:31.150Z,7.13
2023-05-02T02:05:35.073Z,6.70
2023-05-02T02:07:39.079Z,7.03
2023-05-02T02:09:41.871Z,6.97
2023-05-02T02:11:47.741Z,6.53
2023-05-02T02:13:50.830Z,6.40
2023-05-02T02:15:59.746Z,6.30
2023-05-02T02:18:12.053Z,5.90
2023-05-02T02:20:15.406Z,5.70
2023-05-02T02:22:20.210Z,5.83
2023-05-02T02:24:22.886Z,5.57
2023-05-02T02:26:24.938Z,5.33
2023-05-02T02:28:27.051Z,5.20
2023-05-02T02:30:30.514Z,5.00
2023-05-02T02:32:32.559Z,5.00
2023-05-02T02:34:35.594Z,5.03
2023-05-02T02:36:43.594Z,4.57
2023-05-02T02:38:49.210Z,4.50
2023-05-02T02:41:20.198Z,4.30
2023-05-02T02:43:36.628Z,4.93
2023-05-02T02:45:44.234Z,4.60
2023-05-02T02:48:10.435Z,4.30
2023-05-02T02:50:30.909Z,3.60
2023-05-02T02:52:52.945Z,4.60
2023-05-02T02:55:07.831Z,3.70
2023-05-02T02:57:21.281Z,4.67
2023-05-02T02:59:41.466Z,4.03
2023-05-02T03:01:48.042Z,4.20
2023-05-02T03:03:51.530Z,4.13
2023-05-02T03:05:57.234Z,4.20
2023-05-02T03:08:01.038Z,4.53
2023-05-02T03:10:04.898Z,4.10
2023-05-02T03:12:08.972Z,4.70
2023-05-02T03:14:13.059Z,3.90
2023-05-02T03:16:36.841Z,4.40
2023-05-02T03:18:41.582Z,4.37
2023-05-02T03:20:43.649Z,4.47
2023-05-02T03:22:45.876Z,4.47
2023-05-02T03:24:49.042Z,4.10
2023-05-02T03:26:54.960Z,4.53
2023-05-02T03:28:59.842Z,4.50
2023-05-02T03:31:08.171Z,4.53
2023-05-02T03:33:14.366Z,4.27
2023-05-02T03:35:18.993Z,4.77
2023-05-02T03:37:26.333Z,4.03
2023-05-02T03:39:29.352Z,4.27
2023-05-02T03:41:31.835Z,4.63
2023-05-02T03:43:40.028Z,4.97
2023-05-02T03:45:42.031Z,4.40
2023-05-02T03:47:44.189Z,4.30
2023-05-02T03:49:47.377Z,4.50
2023-05-02T03:51:50.475Z,5.10
2023-05-02T03:53:58.221Z,4.10
2023-05-02T03:56:00.794Z,4.47
2023-05-02T03:58:14.127Z,4.03
2023-05-02T04:00:17.012Z,4.30
2023-05-02T04:02:25.550Z,4.83
2023-05-02T04:04:27.808Z,4.57
2023-05-02T04:06:32.160Z,4.70
2023-05-02T04:08:38.468Z,4.10
2023-05-02T04:10:40.527Z,3.97
2023-05-02T04:12:45.108Z,4.70
2023-05-02T04:14:47.770Z,4.10
2023-05-02T04:16:50.662Z,4.30
2023-05-02T04:18:57.376Z,4.70
2023-05-02T04:21:00.581Z,4.93
2023-05-02T04:23:02.753Z,4.33
2023-05-02T04:25:07.128Z,4.70
2023-05-02T04:27:13.734Z,3.90
2023-05-02T04:29:17.447Z,4.10
2023-05-02T04:31:19.636Z,4.00
2023-05-02T04:33:22.665Z,3.73
2023-05-02T04:35:24.889Z,4.50
2023-05-02T04:37:27.086Z,4.33
2023-05-02T04:39:29.063Z,4.30
2023-05-02T04:41:41.714Z,4.67
2023-05-02T04:43:44.699Z,5.07
2023-05-02T04:45:48.587Z,4.00
2023-05-02T04:47:58.515Z,4.70
2023-05-02T04:50:00.858Z,5.00
2023-05-02T04:52:03.998Z,4.53
2023-05-02T04:54:06.978Z,3.90
2023-05-02T04:56:09.497Z,4.90
2023-05-02T04:58:12.877Z,4.27
2023-05-02T05:00:16.433Z,5.67
2023-05-02T05:02:19.005Z,4.43
2023-05-02T05:04:21.738Z,5.10
2023-05-02T05:06:24.526Z,4.20
2023-05-02T05:08:27.573Z,3.97
2023-05-02T05:10:30.165Z,4.30
2023-05-02T05:12:32.283Z,4.23
2023-05-02T05:14:35.016Z,5.90
2023-05-02T05:16:37.685Z,4.60
2023-05-02T05:18:43.144Z,4.57
2023-05-02T05:20:47.848Z,4.60
2023-05-02T05:22:50.383Z,6.07
2023-05-02T05:24:54.645Z,4.83
2023-05-02T05:26:59.414Z,4.37
2023-05-02T05:29:01.542Z,5.10
2023-05-02T05:31:10.872Z,5.27
2023-05-02T05:33:14.803Z,5.13
2023-05-02T05:35:17.883Z,5.80
2023-05-02T05:37:20.940Z,4.97
2023-05-02T05:39:23.985Z,6.20
2023-05-02T05:41:27.824Z,7.10
2023-05-02T05:43:38.467Z,6.47
2023-05-02T05:45:41.272Z,5.73
2023-05-02T05:47:43.637Z,6.43
2023-05-02T05:49:45.707Z,6.77
2023-05-02T05:51:48.040Z,7.73
2023-05-02T05:53:51.976Z,7.00
2023-05-02T05:55:54.056Z,6.87
2023-05-02T05:57:56.061Z,9.87
2023-05-02T05:59:58.968Z,7.70
2023-05-02T06:02:01.474Z,7.37
2023-05-02T06:04:05.121Z,7.53
2023-05-02T06:06:11.226Z,7.90
2023-05-02T06:08:13.567Z,9.13
2023-05-02T06:10:15.850Z,9.83
2023-05-02T06:12:18.808Z,9.10
2023-05-02T06:14:21.653Z,10.70
2023-05-02T06:16:25.073Z,8.20
2023-05-02T06:18:27.097Z,8.93
2023-05-02T06:20:29.338Z,9.00
2023-05-02T06:22:31.324Z,8.40
2023-05-02T06:24:33.360Z,7.87
2023-05-02T06:26:35.360Z,8.47
2023-05-02T06:28:37.400Z,8.83
2023-05-02T06:30:39.430Z,8.93
2023-05-02T06:32:44.168Z,9.23
2023-05-02T06:34:46.640Z,10.90
2023-05-02T06:36:48.839Z,9.83
2023-05-02T06:38:50.960Z,9.37
2023-05-02T06:40:53.124Z,9.70
2023-05-02T06:42:55.781Z,8.90
2023-05-02T06:44:57.765Z,10.50
2023-05-02T06:46:59.774Z,10.17
2023-05-02T06:49:01.796Z,9.83
2023-05-02T06:51:08.366Z,9.40
2023-05-02T06:53:10.462Z,8.33
2023-05-02T06:55:12.633Z,9.43
2023-05-02T06:57:14.644Z,10.00
2023-05-02T06:59:19.232Z,9.57
2023-05-02T07:01:21.291Z,9.90
2023-05-02T07:03:23.342Z,9.53
2023-05-02T07:05:25.377Z,9.60
2023-05-02T07:07:27.403Z,9.63
2023-05-02T07:09:29.407Z,9.20
2023-05-02T07:11:31.439Z,8.47
2023-05-02T07:13:33.551Z,9.47
2023-05-02T07:15:35.907Z,9.00
2023-05-02T07:17:37.962Z,10.07
2023-05-02T07:19:39.997Z,10.13
2023-05-02T07:21:42.165Z,10.30
2023-05-02T07:23:44.711Z,10.70
2023-05-02T07:25:48.035Z,11.43
2023-05-02T07:27:50.059Z,10.77
2023-05-02T07:29:52.053Z,10.97
2023-05-02T07:31:54.092Z,12.03
2023-05-02T07:33:56.421Z,11.17
2023-05-02T07:35:58.452Z,11.10
2023-05-02T07:38:00.428Z,10.83
2023-05-02T07:40:03.444Z,11.30
2023-05-02T07:42:06.637Z,11.40
2023-05-02T07:44:08.800Z,11.50
2023-05-02T07:46:11.110Z,11.20
2023-05-02T07:48:13.208Z,12.50
2023-05-02T07:50:15.324Z,9.70
2023-05-02T07:52:17.491Z,11.27
2023-05-02T07:54:20.846Z,10.40
2023-05-02T07:56:23.025Z,9.77
2023-05-02T07:58:25.000Z,12.43
2023-05-02T08:00:27.085Z,10.37
2023-05-02T08:02:29.205Z,12.13
2023-05-02T08:04:31.328Z,11.73
2023-05-02T08:06:33.490Z,12.37
2023-05-02T08:08:36.175Z,13.13
2023-05-02T08:10:38.250Z,12.73
2023-05-02T08:12:41.451Z,11.93
2023-05-02T08:14:43.487Z,11.40
2023-05-02T08:16:46.607Z,12.37
2023-05-02T08:18:48.952Z,13.80
2023-05-02T08:20:51.545Z,14.97
2023-05-02T08:22:53.538Z,14.90
2023-05-02T08:24:55.563Z,14.80
2023-05-02T08:26:57.598Z,15.63
2023-05-02T08:28:59.837Z,15.30
2023-05-02T08:31:01.905Z,15.20
2023-05-02T08:33:04.124Z,15.23
2023-05-02T08:35:06.836Z,16.60
2023-05-02T08:37:10.181Z,15.60
2023-05-02T08:39:12.343Z,15.37
2023-05-02T08:41:17.100Z,17.73
2023-05-02T08:43:19.461Z,16.10
2023-05-02T08:45:22.754Z,17.67
2023-05-02T08:47:26.113Z,15.83
2023-05-02T08:49:30.388Z,16.00
2023-05-02T08:51:33.147Z,16.53
2023-05-02T08:53:36.322Z,17.37
2023-05-02T08:55:42.039Z,16.10
2023-05-02T08:57:44.670Z,15.30
2023-05-02T08:59:46.757Z,15.87
2023-05-02T09:01:53.543Z,17.47
2023-05-02T09:03:58.398Z,15.70
2023-05-02T09:06:07.093Z,17.30
2023-05-02T09:08:09.585Z,17.50
2023-05-02T09:10:12.122Z,15.83
2023-05-02T09:12:14.844Z,16.87
2023-05-02T09:14:17.599Z,16.70
2023-05-02T09:16:22.999Z,15.43
2023-05-02T09:18:28.753Z,15.37
2023-05-02T09:20:40.660Z,16.63
2023-05-02T09:22:50.718Z,15.37
2023-05-02T09:24:55.784Z,17.00
2023-05-02T09:27:05.681Z,15.50
2023-05-02T09:29:08.010Z,16.57
2023-05-02T09:31:15.237Z,15.80
2023-05-02T09:33:27.054Z,15.43
2023-05-02T09:35:29.361Z,14.77
2023-05-02T09:37:34.992Z,16.43
2023-05-02T09:39:37.277Z,15.20
2023-05-02T09:41:47.964Z,14.40
2023-05-02T09:43:58.974Z,15.17
2023-05-02T09:46:04.223Z,14.53
2023-05-02T09:48:06.605Z,13.50
2023-05-02T09:50:09.322Z,14.80
2023-05-02T09:52:13.076Z,13.77
2023-05-02T09:54:37.464Z,13.10
2023-05-02T09:56:56.938Z,13.47
2023-05-02T09:59:15.873Z,13.03
2023-05-02T10:01:19.208Z,13.53
2023-05-02T10:03:24.544Z,13.07
2023-05-02T10:05:27.380Z,15.50
2023-05-02T10:07:30.058Z,14.47
2023-05-02T10:09:35.104Z,14.43
2023-05-02T10:11:39.391Z,14.43
2023-05-02T10:13:43.792Z,12.80
2023-05-02T10:15:46.211Z,13.93
2023-05-02T10:17:50.621Z,13.30
2023-05-02T10:20:06.838Z,14.07
2023-05-02T10:22:09.230Z,11.50
2023-05-02T10:24:11.956Z,13.60
2023-05-02T10:26:17.060Z,13.10
2023-05-02T10:28:19.875Z,12.70
2023-05-02T10:30:22.960Z,12.60
2023-05-02T10:32:28.541Z,11.77
2023-05-02T10:34:32.720Z,10.80
2023-05-02T10:36:34.954Z,11.87
2023-05-02T10:38:37.731Z,9.27
2023-05-02T10:40:41.165Z,7.80
2023-05-02T10:42:46.363Z,7.47
2023-05-02T10:44:50.477Z,7.37
2023-05-02T10:46:53.705Z,8.93
2023-05-02T10:49:06.442Z,8.67
2023-05-02T10:51:14.206Z,6.83
2023-05-02T10:53:26.763Z,7.73
2023-05-02T10:55:29.737Z,7.37
2023-05-02T10:57:31.928Z,7.33
2023-05-02T10:59:43.114Z,6.63
2023-05-02T11:01:45.486Z,7.47
2023-05-02T11:03:58.356Z,7.17
2023-05-02T11:06:07.468Z,6.90
2023-05-02T11:08:15.628Z,6.70
2023-05-02T11:10:17.874Z,7.83
2023-05-02T11:12:44.489Z,8.90
2023-05-02T11:14:48.154Z,8.93
2023-05-02T11:16:59.902Z,8.33
2023-05-02T11:19:02.273Z,8.97
2023-05-02T11:21:40.209Z,8.73
2023-05-02T11:23:43.853Z,8.40
2023-05-02T11:25:48.152Z,7.93
2023-05-02T11:27:50.350Z,8.30
2023-05-02T11:29:53.662Z,8.57
2023-05-02T11:31:56.032Z,8.80
2023-05-02T11:33:59.416Z,9.40
2023-05-02T11:36:03.593Z,7.60
2023-05-02T11:38:12.383Z,8.53
2023-05-02T11:40:15.092Z,8.03
2023-05-02T11:42:33.853Z,7.30
2023-05-02T11:44:55.743Z,6.30
2023-05-02T11:46:57.951Z,7.47
2023-05-02T11:49:01.383Z,6.07
2023-05-02T11:51:05.214Z,6.27
2023-05-02T11:53:11.516Z,6.23
2023-05-02T11:55:15.187Z,5.60
2023-05-02T11:57:17.482Z,6.30
2023-05-02T11:59:19.662Z,6.87
2023-05-02T12:01:21.815Z,7.70
2023-05-02T12:03:27.957Z,7.10
2023-05-02T12:05:30.444Z,7.77
2023-05-02T12:07:39.135Z,7.43
2023-05-02T12:09:52.354Z,8.30
2023-05-02T12:11:54.968Z,7.10
2023-05-02T12:13:57.766Z,6.97
2023-05-02T12:16:00.203Z,6.53
2023-05-02T12:18:02.628Z,6.80
2023-05-02T12:20:07.749Z,6.17
2023-05-02T12:22:10.415Z,5.67
2023-05-02T12:24:12.624Z,6.13
2023-05-02T12:26:18.599Z,6.80
2023-05-02T12:28:21.268Z,5.63
2023-05-02T12:30:27.685Z,6.10
2023-05-02T12:32:36.541Z,6.10
2023-05-02T12:34:39.303Z,5.37
2023-05-02T12:36:45.464Z,4.60
2023-05-02T12:38:59.676Z,3.90
2023-05-02T12:41:02.515Z,4.70
2023-05-02T12:43:07.417Z,5.10
2023-05-02T12:45:18.868Z,4.47
2023-05-02T12:47:24.898Z,4.20
2023-05-02T12:49:27.500Z,4.07
2023-05-02T12:51:31.590Z,3.93
2023-05-02T12:53:44.469Z,4.30
2023-05-02T12:55:47.015Z,3.70
2023-05-02T12:57:49.267Z,3.20
2023-05-02T12:59:53.451Z,3.67
2023-05-02T13:01:55.611Z,3.53
2023-05-02T13:03:58.118Z,3.90
2023-05-02T13:06:00.513Z,3.93
2023-05-02T13:08:02.966Z,4.00
2023-05-02T13:10:05.532Z,4.30
2023-05-02T13:12:08.479Z,3.90
2023-05-02T13:14:11.613Z,3.83
2023-05-02T13:16:14.033Z,3.63
2023-05-02T13:18:16.341Z,4.30
2023-05-02T13:20:19.048Z,4.23
2023-05-02T13:22:21.744Z,3.80
2023-05-02T13:24:23.973Z,3.43
2023-05-02T13:26:26.095Z,4.37
2023-05-02T13:28:30.396Z,3.40
2023-05-02T13:30:32.554Z,3.33
2023-05-02T13:32:34.811Z,3.40
2023-05-02T13:34:37.577Z,3.53
2023-05-02T13:36:46.095Z,3.60
2023-05-02T13:38:48.668Z,3.60
2023-05-02T13:40:50.936Z,5.00
2023-05-02T13:42:53.315Z,4.10
2023-05-02T13:44:55.620Z,3.93
2023-05-02T13:46:58.232Z,3.63
2023-05-02T13:49:00.816Z,4.07
2023-05-02T13:51:03.371Z,4.40
2023-05-02T13:53:05.564Z,4.07
2023-05-02T13:55:08.230Z,4.60
2023-05-02T13:57:10.748Z,3.37
2023-05-02T13:59:12.925Z,3.30
2023-05-02T14:01:15.154Z,3.73
2023-05-02T14:03:17.734Z,3.37
2023-05-02T14:05:20.050Z,4.13
2023-05-02T14:07:22.248Z,4.00
2023-05-02T14:09:24.532Z,4.00
2023-05-02T14:11:26.944Z,4.27
2023-05-02T14:13:29.101Z,4.37
2023-05-02T14:15:31.706Z,3.70
2023-05-02T14:17:34.166Z,3.97
2023-05-02T14:19:36.440Z,3.90
2023-05-02T14:21:38.859Z,4.37
2023-05-02T14:23:41.048Z,4.53
2023-05-02T14:25:43.215Z,4.03
2023-05-02T14:27:49.827Z,3.53
2023-05-02T14:29:57.200Z,4.57
2023-05-02T14:32:00.194Z,3.73
2023-05-02T14:34:02.784Z,3.90
2023-05-02T14:36:05.467Z,3.67
2023-05-02T14:38:07.718Z,3.80
2023-05-02T14:40:10.790Z,3.83
2023-05-02T14:42:13.000Z,3.20
2023-05-02T14:44:15.256Z,3.17
2023-05-02T14:46:17.510Z,3.80
2023-05-02T14:48:19.708Z,3.30
2023-05-02T14:50:21.952Z,3.40
2023-05-02T14:52:24.245Z,3.73
2023-05-02T14:54:28.491Z,3.47
2023-05-02T14:56:30.781Z,3.70
2023-05-02T14:58:32.966Z,3.80
2023-05-02T15:00:37.774Z,16.00
2023-05-02T15:02:40.550Z,5.00
2023-05-02T15:04:42.788Z,5.87
2023-05-02T15:06:45.278Z,4.03
2023-05-02T15:08:48.248Z,12.90
2023-05-02T15:10:50.473Z,6.23
2023-05-02T15:12:52.728Z,4.50
2023-05-02T15:14:54.871Z,3.60
2023-05-02T15:16:57.253Z,4.27
2023-05-02T15:18:59.464Z,2.60
2023-05-02T15:21:01.781Z,3.73
2023-05-02T15:23:04.699Z,3.20
2023-05-02T15:25:07.526Z,2.73
2023-05-02T15:27:09.885Z,3.03
2023-05-02T15:29:12.083Z,3.60
2023-05-02T15:31:14.417Z,3.60
2023-05-02T15:33:16.743Z,3.17
2023-05-02T15:35:18.982Z,3.10
2023-05-02T15:37:21.272Z,3.00
2023-05-02T15:39:26.346Z,3.17
2023-05-02T15:41:28.601Z,3.90
2023-05-02T15:43:30.674Z,3.10
2023-05-02T15:45:33.060Z,3.10
2023-05-02T15:47:35.317Z,3.00
2023-05-02T15:49:37.900Z,3.40
2023-05-02T15:51:40.336Z,2.60
2023-05-02T15:53:44.378Z,3.03
2023-05-02T15:55:46.845Z,3.37
2023-05-02T15:57:51.837Z,3.03
2023-05-02T15:59:54.056Z,2.80
2023-05-02T16:01:56.394Z,3.27
2023-05-02T16:03:58.644Z,3.80
2023-05-02T16:06:01.135Z,3.30
2023-05-02T16:08:03.660Z,3.17
2023-05-02T16:10:07.327Z,3.10
2023-05-02T16:12:09.655Z,3.00
2023-05-02T16:14:12.405Z,3.20
2023-05-02T16:16:14.799Z,3.20
2023-05-02T16:18:17.078Z,2.50
2023-05-02T16:20:19.552Z,4.20
2023-05-02T16:22:21.938Z,3.80
2023-05-02T16:24:24.275Z,3.80
2023-05-02T16:26:28.247Z,3.47
2023-05-02T16:28:31.744Z,3.27
2023-05-02T16:30:36.977Z,2.60
2023-05-02T16:32:39.209Z,3.33
2023-05-02T16:34:41.461Z,2.87
2023-05-02T16:36:43.744Z,3.63
2023-05-02T16:38:46.244Z,3.57
2023-05-02T16:40:48.381Z,4.10
2023-05-02T16:42:50.562Z,2.77
2023-05-02T16:44:52.980Z,3.40
2023-05-02T16:46:55.389Z,3.37
2023-05-02T16:48:57.699Z,3.70
2023-05-02T16:51:01.818Z,2.77
2023-05-02T16:53:06.496Z,3.30
2023-05-02T16:55:08.994Z,3.93
2023-05-02T16:57:11.417Z,3.63
2023-05-02T16:59:13.665Z,3.73
2023-05-02T17:01:15.923Z,3.40
2023-05-02T17:03:18.125Z,3.93
2023-05-02T17:05:20.780Z,3.27
2023-05-02T17:07:22.927Z,3.50
2023-05-02T17:09:25.271Z,3.77
2023-05-02T17:11:28.551Z,3.90
2023-05-02T17:13:31.298Z,3.70
2023-05-02T17:15:38.576Z,3.30
2023-05-02T17:17:40.790Z,3.50
2023-05-02T17:19:42.984Z,3.47
2023-05-02T17:21:45.121Z,3.27
2023-05-02T17:23:47.360Z,3.60
2023-05-02T17:25:49.610Z,3.37
2023-05-02T17:27:52.012Z,4.00
2023-05-02T17:29:54.249Z,3.77
2023-05-02T17:32:01.656Z,3.93
2023-05-02T17:34:03.905Z,3.80
2023-05-02T17:36:06.938Z,3.40
2023-05-02T17:38:09.160Z,3.57
2023-05-02T17:40:12.376Z,5.10
2023-05-02T17:42:14.629Z,3.90
2023-05-02T17:44:16.878Z,3.90
2023-05-02T17:46:19.113Z,3.30
2023-05-02T17:48:21.398Z,4.30
2023-05-02T17:50:23.635Z,3.60
2023-05-02T17:52:26.150Z,4.07
2023-05-02T17:54:28.583Z,4.40
2023-05-02T17:56:30.778Z,3.70
2023-05-02T17:58:35.410Z,2.97
2023-05-02T18:00:38.164Z,4.30
2023-05-02T18:02:40.445Z,3.73
2023-05-02T18:04:44.715Z,4.10
2023-05-02T18:06:47.658Z,4.57
2023-05-02T18:08:49.903Z,3.83
2023-05-02T18:10:52.176Z,4.50
2023-05-02T18:12:54.352Z,3.63
2023-05-02T18:14:56.499Z,3.70
2023-05-02T18:16:58.691Z,3.93
2023-05-02T18:19:01.386Z,4.90
2023-05-02T18:21:03.990Z,5.50
2023-05-02T18:23:06.253Z,5.27
2023-05-02T18:25:08.746Z,5.03
2023-05-02T18:27:11.120Z,4.30
2023-05-02T18:29:13.793Z,5.33
2023-05-02T18:31:19.096Z,6.73
2023-05-02T18:33:21.390Z,4.37
2023-05-02T18:35:23.647Z,5.17
2023-05-02T18:37:31.667Z,4.93
2023-05-02T18:39:34.703Z,5.00
2023-05-02T18:41:39.254Z,5.17
2023-05-02T18:43:41.460Z,6.33
2023-05-02T18:45:44.397Z,7.20
2023-05-02T18:47:46.639Z,6.40
2023-05-02T18:49:50.235Z,4.23
2023-05-02T18:51:53.663Z,4.00
2023-05-02T18:53:55.831Z,4.00
2023-05-02T18:55:58.136Z,4.50
2023-05-02T18:58:00.423Z,4.30
2023-05-02T19:00:06.178Z,4.57
2023-05-02T19:02:08.818Z,4.90
2023-05-02T19:04:11.049Z,4.30
2023-05-02T19:06:13.985Z,4.60
2023-05-02T19:08:16.210Z,4.70
2023-05-02T19:10:18.451Z,4.70
2023-05-02T19:12:20.649Z,4.77
2023-05-02T19:14:23.207Z,4.83
2023-05-02T19:16:27.167Z,5.73
2023-05-02T19:18:29.462Z,5.40
2023-05-02T19:20:31.732Z,4.10
2023-05-02T19:22:34.715Z,4.80
2023-05-02T19:24:37.149Z,5.20
2023-05-02T19:26:39.301Z,4.50
2023-05-02T19:28:42.129Z,4.17
2023-05-02T19:30:44.602Z,3.60
2023-05-02T19:32:46.881Z,4.67
2023-05-02T19:34:49.251Z,4.97
2023-05-02T19:36:51.451Z,4.50
2023-05-02T19:38:54.807Z,5.17
2023-05-02T19:40:57.025Z,4.60
2023-05-02T19:42:59.180Z,4.37
2023-05-02T19:45:01.621Z,4.20
2023-05-02T19:47:04.177Z,4.23
2023-05-02T19:49:06.349Z,3.57
2023-05-02T19:51:08.774Z,4.03
2023-05-02T19:53:11.029Z,3.27
2023-05-02T19:55:13.556Z,3.60
2023-05-02T19:57:17.986Z,3.23
2023-05-02T19:59:20.211Z,3.00
2023-05-02T20:01:22.603Z,3.13
2023-05-02T20:03:25.529Z,3.37
2023-05-02T20:05:27.868Z,3.80
2023-05-02T20:07:29.994Z,3.30
2023-05-02T20:09:32.237Z,4.30
2023-05-02T20:11:34.442Z,2.90
2023-05-02T20:13:36.663Z,3.40
2023-05-02T20:15:38.805Z,3.57
2023-05-02T20:17:41.115Z,3.00
2023-05-02T20:19:45.319Z,3.47
2023-05-02T20:21:47.475Z,2.63
2023-05-02T20:23:49.960Z,3.27
2023-05-02T20:25:52.127Z,3.60
2023-05-02T20:27:54.368Z,3.10
2023-05-02T20:29:56.570Z,3.07
2023-05-02T20:31:59.472Z,3.83
2023-05-02T20:34:01.815Z,3.53
2023-05-02T20:36:04.149Z,2.80
2023-05-02T20:38:06.279Z,4.13
2023-05-02T20:40:10.257Z,3.30
2023-05-02T20:42:12.445Z,3.73
2023-05-02T20:44:17.621Z,3.47
2023-05-02T20:46:20.813Z,2.70
2023-05-02T20:48:23.013Z,2.57
2023-05-02T20:50:25.379Z,2.57
2023-05-02T20:52:27.553Z,2.73
2023-05-02T20:54:29.932Z,2.90
2023-05-02T20:56:32.110Z,2.70
2023-05-02T20:58:34.302Z,3.10
2023-05-02T21:00:37.070Z,3.30
2023-05-02T21:02:39.428Z,3.17
2023-05-02T21:04:42.254Z,3.63
2023-05-02T21:06:44.573Z,3.30
2023-05-02T21:08:46.989Z,3.30
2023-05-02T21:10:49.205Z,3.23
2023-05-02T21:12:51.471Z,4.10
2023-05-02T21:14:53.697Z,3.80
2023-05-02T21:16:55.820Z,3.47
2023-05-02T21:18:57.986Z,3.23
2023-05-02T21:21:00.076Z,2.93
2023-05-02T21:23:02.677Z,3.50
2023-05-02T21:25:05.481Z,2.87
2023-05-02T21:27:07.723Z,3.00
2023-05-02T21:29:14.985Z,2.70
2023-05-02T21:31:17.264Z,3.30
2023-05-02T21:33:19.389Z,3.50
2023-05-02T21:35:21.602Z,3.33
2023-05-02T21:37:24.000Z,3.23
2023-05-02T21:39:26.622Z,3.23
2023-05-02T21:41:28.882Z,3.40
2023-05-02T21:43:34.597Z,4.10
2023-05-02T21:45:43.915Z,3.00
2023-05-02T21:47:46.196Z,3.20
2023-05-02T21:49:48.388Z,4.20
2023-05-02T21:51:50.590Z,3.53
2023-05-02T21:53:53.606Z,3.60
2023-05-02T21:55:55.797Z,3.03
2023-05-02T21:57:58.166Z,3.57
2023-05-02T22:00:01.048Z,2.87
2023-05-02T22:02:03.523Z,3.80
2023-05-02T22:04:06.441Z,3.53
2023-05-02T22:06:09.505Z,3.10
2023-05-02T22:08:13.100Z,3.13
2023-05-02T22:10:15.652Z,3.00
2023-05-02T22:12:19.990Z,3.10
2023-05-02T22:14:27.614Z,3.07
2023-05-02T22:16:35.820Z,3.10
2023-05-02T22:18:37.980Z,3.43
2023-05-02T22:20:44.267Z,3.70
2023-05-02T22:22:46.546Z,3.53
2023-05-02T22:24:48.682Z,3.33
2023-05-02T22:26:51.020Z,3.60
2023-05-02T22:28:53.157Z,3.33
2023-05-02T22:36:10.483Z,3.80
2023-05-02T22:38:17.310Z,3.43
2023-05-02T22:40:20.069Z,3.17
2023-05-02T22:42:23.855Z,3.37
2023-05-02T22:44:25.847Z,3.63
2023-05-02T22:51:13.672Z,3.60
2023-05-02T22:53:15.938Z,3.50
2023-05-02T22:55:18.047Z,3.57
2023-05-02T22:57:20.131Z,4.20
2023-05-02T22:59:22.169Z,3.57
2023-05-02T23:01:24.277Z,3.63
2023-05-02T23:03:26.395Z,4.13
2023-05-02T23:05:29.401Z,3.80
2023-05-02T23:07:31.517Z,3.30
2023-05-02T23:09:33.573Z,3.90
2023-05-02T23:11:35.591Z,3.53
2023-05-02T23:13:37.757Z,3.93
2023-05-02T23:15:40.155Z,3.70
2023-05-02T23:17:42.290Z,3.93
2023-05-02T23:19:44.365Z,4.40
2023-05-02T23:21:46.561Z,4.57
2023-05-02T23:23:48.634Z,3.93
2023-05-02T23:25:50.773Z,4.40
2023-05-02T23:27:52.911Z,3.93
2023-05-02T23:29:54.961Z,4.33
2023-05-02T23:31:56.990Z,4.33
2023-05-02T23:34:00.024Z,4.30
2023-05-02T23:36:02.292Z,3.77
2023-05-02T23:38:08.092Z,3.73
2023-05-02T23:40:10.549Z,3.87
2023-05-02T23:42:12.552Z,4.33
2023-05-02T23:44:14.584Z,3.60
2023-05-02T23:46:16.832Z,3.80
2023-05-02T23:48:20.249Z,3.80
2023-05-02T23:50:22.232Z,4.10
2023-05-02T23:52:24.268Z,3.90
2023-05-02T23:54:26.259Z,4.60
2023-05-02T23:56:28.221Z,3.93
2023-05-02T23:58:30.356Z,4.10
